Time;durP1;ratioP1;P1;durP2;ratioP2;P2;SDS_P1;SDS_P2;PMS_P1;PMS_P2;Temp;Humidity;BMP_temperature;BMP_pressure;BME280_temperature;BME280_humidity;BME280_pressure;Samples;Min_cycle;Max_cycle;Signal;HPM_P1;HPM_P2
2021/01/19 00:00:13;;;;;;;7.57;2.30;;;;;;;;;;4952693;28;20334;-79
2021/01/19 00:02:39;;;;;;;9.03;2.23;;;;;;;;;;4968067;28;20290;-79
2021/01/19 00:05:05;;;;;;;4.87;2.30;;;;;;;;;;4951044;28;20865;-79
2021/01/19 00:07:31;;;;;;;7.83;2.80;;;;;;;;;;4955696;28;20656;-79
2021/01/19 00:09:57;;;;;;;6.30;2.27;;;;;;;;;;4955736;28;20286;-79
2021/01/19 00:12:24;;;;;;;3.77;1.50;;;;;;;;;;4961680;28;20274;-78
2021/01/19 00:14:51;;;;;;;5.50;2.27;;;;;;;;;;4952486;28;20287;-79
2021/01/19 00:17:17;;;;;;;8.17;2.27;;;;;;;;;;4955301;28;20739;-78
2021/01/19 00:19:43;;;;;;;5.47;1.50;;;;;;;;;;4955077;28;20271;-78
2021/01/19 00:22:09;;;;;;;3.37;1.53;;;;;;;;;;4985153;28;20286;-79
2021/01/19 00:24:35;;;;;;;9.90;2.13;;;;;;;;;;4955391;28;20266;-79
2021/01/19 00:27:04;;;;;;;6.40;1.80;;;;;;;;;;4970843;28;20872;-79
2021/01/19 00:29:31;;;;;;;5.17;1.67;;;;;;;;;;4966276;28;20361;-79
2021/01/19 00:31:57;;;;;;;3.97;1.87;;;;;;;;;;4966969;28;20648;-79
2021/01/19 00:34:23;;;;;;;6.07;2.17;;;;;;;;;;4970979;28;20349;-78
2021/01/19 00:36:49;;;;;;;3.33;1.63;;;;;;;;;;4954319;28;20265;-78
2021/01/19 00:39:15;;;;;;;7.73;2.83;;;;;;;;;;4954953;28;21013;-79
2021/01/19 00:41:42;;;;;;;5.30;1.83;;;;;;;;;;4955654;28;20270;-79
2021/01/19 00:44:08;;;;;;;4.20;1.50;;;;;;;;;;4955943;28;20332;-79
2021/01/19 00:46:34;;;;;;;7.27;1.67;;;;;;;;;;4958135;28;20282;-79
2021/01/19 00:49:00;;;;;;;5.33;1.43;;;;;;;;;;4953922;28;20286;-78
2021/01/19 00:51:33;;;;;;;4.63;1.40;;;;;;;;;;4971644;28;20309;-79
2021/01/19 00:53:59;;;;;;;5.32;1.75;;;;;;;;;;4971583;28;20369;-79
2021/01/19 00:56:26;;;;;;;4.43;1.50;;;;;;;;;;4973196;28;20120;-79
2021/01/19 00:58:52;;;;;;;2.77;1.50;;;;;;;;;;4955072;28;20357;-79
2021/01/19 01:01:20;;;;;;;4.37;1.30;;;;;;;;;;4954070;28;20287;-78
2021/01/19 01:03:46;;;;;;;4.53;1.53;;;;;;;;;;4959777;28;20289;-79
2021/01/19 01:06:15;;;;;;;5.60;1.77;;;;;;;;;;4954405;28;20262;-79
2021/01/19 01:08:41;;;;;;;3.97;1.63;;;;;;;;;;4968117;28;20321;-77
2021/01/19 01:11:08;;;;;;;9.20;2.03;;;;;;;;;;4953850;28;20262;-78
2021/01/19 01:13:35;;;;;;;6.50;1.80;;;;;;;;;;4954414;28;20282;-78
2021/01/19 01:16:01;;;;;;;4.10;1.47;;;;;;;;;;4953746;28;20285;-79
2021/01/19 01:18:30;;;;;;;7.10;1.97;;;;;;;;;;4950564;29;20286;-77
2021/01/19 01:20:56;;;;;;;5.53;1.73;;;;;;;;;;4961479;28;20274;-79
2021/01/19 01:23:22;;;;;;;4.60;1.73;;;;;;;;;;4954160;28;20258;-79
2021/01/19 01:25:48;;;;;;;4.47;1.47;;;;;;;;;;4954508;28;20274;-79
2021/01/19 01:28:14;;;;;;;4.83;1.40;;;;;;;;;;4971181;28;21141;-79
2021/01/19 01:30:40;;;;;;;4.93;1.93;;;;;;;;;;4960097;28;20266;-76
2021/01/19 01:33:06;;;;;;;3.47;1.57;;;;;;;;;;4964479;28;20337;-79
2021/01/19 01:35:33;;;;;;;11.17;2.10;;;;;;;;;;4972500;28;20337;-79
2021/01/19 01:37:59;;;;;;;5.03;1.90;;;;;;;;;;4955220;28;20305;-77
2021/01/19 01:40:26;;;;;;;6.40;1.60;;;;;;;;;;4955806;28;20783;-78
2021/01/19 01:42:53;;;;;;;5.20;1.97;;;;;;;;;;4956449;28;20278;-79
2021/01/19 01:45:20;;;;;;;5.20;1.87;;;;;;;;;;4952351;29;20275;-79
2021/01/19 01:47:50;;;;;;;5.50;1.73;;;;;;;;;;4951961;29;20278;-79
2021/01/19 01:50:17;;;;;;;17.10;4.27;;;;;;;;;;4969736;28;20361;-79
2021/01/19 01:52:43;;;;;;;4.03;1.50;;;;;;;;;;4955631;28;20298;-79
2021/01/19 01:55:09;;;;;;;3.97;1.50;;;;;;;;;;4972934;28;20263;-79
2021/01/19 01:57:38;;;;;;;2.90;1.53;;;;;;;;;;4955314;28;20270;-79
2021/01/19 02:00:05;;;;;;;4.33;2.07;;;;;;;;;;4969440;28;20292;-78
2021/01/19 02:02:31;;;;;;;5.40;1.97;;;;;;;;;;4929046;29;20295;-79
2021/01/19 02:04:57;;;;;;;4.63;1.57;;;;;;;;;;4954697;28;20326;-79
2021/01/19 02:07:26;;;;;;;3.40;1.40;;;;;;;;;;4951940;29;20339;-79
2021/01/19 02:10:13;;;;;;;5.80;1.80;;;;;;;;;;4955843;28;20266;-79
2021/01/19 02:12:46;;;;;;;4.37;1.40;;;;;;;;;;4917204;28;20282;-79
2021/01/19 02:15:12;;;;;;;3.50;1.38;;;;;;;;;;4952486;28;20289;-79
2021/01/19 02:17:49;;;;;;;4.60;1.97;;;;;;;;;;4963543;28;20054;-77
2021/01/19 02:20:23;;;;;;;7.07;1.83;;;;;;;;;;4976851;28;20335;-79
2021/01/19 02:23:04;;;;;;;4.63;1.80;;;;;;;;;;4956868;28;20270;-79
2021/01/19 02:25:33;;;;;;;4.70;1.63;;;;;;;;;;4956538;28;20286;-79
2021/01/19 02:28:02;;;;;;;5.47;1.60;;;;;;;;;;4956500;28;20283;-79
2021/01/19 02:30:28;;;;;;;5.87;3.27;;;;;;;;;;4971837;28;20273;-79
2021/01/19 02:33:05;;;;;;;4.67;2.03;;;;;;;;;;4953511;28;20357;-79
2021/01/19 02:35:44;;;;;;;5.73;2.13;;;;;;;;;;4962656;28;20329;-79
2021/01/19 02:38:19;;;;;;;2.57;1.23;;;;;;;;;;4956122;28;20274;-78
2021/01/19 02:40:46;;;;;;;3.33;1.77;;;;;;;;;;4955696;28;20262;-77
2021/01/19 02:43:14;;;;;;;6.10;2.07;;;;;;;;;;4953938;28;20310;-79
2021/01/19 02:45:45;;;;;;;4.73;2.00;;;;;;;;;;4973298;28;20270;-79
2021/01/19 02:48:11;;;;;;;3.63;1.50;;;;;;;;;;4945165;28;20297;-76
2021/01/19 02:50:37;;;;;;;4.77;1.63;;;;;;;;;;4965484;28;20290;-78
2021/01/19 02:53:05;;;;;;;5.23;1.77;;;;;;;;;;4964843;28;20313;-78
2021/01/19 02:55:31;;;;;;;4.37;1.67;;;;;;;;;;4966832;28;20282;-79
2021/01/19 02:58:05;;;;;;;4.63;1.77;;;;;;;;;;4981627;28;20266;-77
2021/01/19 03:00:37;;;;;;;6.47;2.10;;;;;;;;;;4977646;28;20337;-77
2021/01/19 03:03:05;;;;;;;8.00;2.43;;;;;;;;;;4975867;28;20344;-77
2021/01/19 03:05:31;;;;;;;8.57;2.57;;;;;;;;;;4984019;28;20352;-78
2021/01/19 03:08:03;;;;;;;5.70;1.90;;;;;;;;;;4959929;28;20285;-79
2021/01/19 03:10:30;;;;;;;4.10;2.00;;;;;;;;;;4958400;28;20328;-79
2021/01/19 03:12:56;;;;;;;8.40;2.27;;;;;;;;;;4957647;28;20294;-77
2021/01/19 03:15:22;;;;;;;4.37;2.50;;;;;;;;;;4974109;28;20277;-79
2021/01/19 03:17:48;;;;;;;4.43;1.83;;;;;;;;;;4949247;29;20332;-79
2021/01/19 03:20:15;;;;;;;8.10;2.30;;;;;;;;;;4969472;28;20786;-79
2021/01/19 03:22:42;;;;;;;5.57;2.30;;;;;;;;;;4966579;28;20282;-79
2021/01/19 03:25:08;;;;;;;5.47;2.13;;;;;;;;;;4950927;28;20429;-79
2021/01/19 03:27:34;;;;;;;5.43;2.03;;;;;;;;;;4956348;28;20826;-79
2021/01/19 03:30:00;;;;;;;7.47;1.63;;;;;;;;;;4957141;28;20271;-78
2021/01/19 03:32:27;;;;;;;4.97;2.03;;;;;;;;;;4961078;28;20638;-79
2021/01/19 03:34:53;;;;;;;6.50;2.60;;;;;;;;;;4959097;28;20278;-79
2021/01/19 03:37:19;;;;;;;4.23;2.03;;;;;;;;;;4960322;28;20270;-79
2021/01/19 03:39:45;;;;;;;8.00;2.33;;;;;;;;;;4957077;29;20333;-78
2021/01/19 03:42:11;;;;;;;4.60;2.30;;;;;;;;;;4959976;28;20275;-79
2021/01/19 03:44:37;;;;;;;5.30;2.17;;;;;;;;;;4949992;28;20357;-78
2021/01/19 03:47:04;;;;;;;6.27;1.87;;;;;;;;;;4958125;28;20275;-79
2021/01/19 03:49:30;;;;;;;7.57;2.33;;;;;;;;;;4972574;28;20290;-79
2021/01/19 03:51:56;;;;;;;7.23;2.40;;;;;;;;;;4955292;28;20278;-79
2021/01/19 03:54:22;;;;;;;6.47;2.47;;;;;;;;;;4972274;28;20318;-79
2021/01/19 03:56:48;;;;;;;7.27;4.13;;;;;;;;;;4960630;28;21155;-78
2021/01/19 03:59:14;;;;;;;5.77;2.20;;;;;;;;;;4960131;28;20266;-79
2021/01/19 04:01:41;;;;;;;6.77;2.67;;;;;;;;;;4958195;28;20278;-79
2021/01/19 04:04:07;;;;;;;5.73;2.33;;;;;;;;;;4953807;28;20282;-76
2021/01/19 04:06:33;;;;;;;5.50;2.30;;;;;;;;;;4973571;28;20282;-79
2021/01/19 04:08:59;;;;;;;7.90;2.33;;;;;;;;;;4975072;28;20551;-78
2021/01/19 04:11:25;;;;;;;7.67;2.33;;;;;;;;;;4957665;28;20266;-77
2021/01/19 04:13:51;;;;;;;4.83;1.90;;;;;;;;;;4974712;28;20297;-76
2021/01/19 04:16:17;;;;;;;7.53;2.00;;;;;;;;;;4951114;28;20290;-77
2021/01/19 04:18:45;;;;;;;5.57;2.27;;;;;;;;;;4965209;28;20786;-79
2021/01/19 04:21:12;;;;;;;4.03;1.93;;;;;;;;;;4975163;28;20285;-79
2021/01/19 04:23:38;;;;;;;6.47;2.47;;;;;;;;;;4974817;28;20818;-79
2021/01/19 04:26:04;;;;;;;4.43;1.90;;;;;;;;;;4954280;28;20271;-79
2021/01/19 04:28:30;;;;;;;12.53;2.53;;;;;;;;;;4963321;28;20746;-76
2021/01/19 04:30:56;;;;;;;5.13;2.23;;;;;;;;;;4969384;28;20270;-79
2021/01/19 04:33:22;;;;;;;5.10;2.60;;;;;;;;;;4954042;28;20286;-79
2021/01/19 04:35:49;;;;;;;5.10;2.23;;;;;;;;;;4956712;28;20282;-79
2021/01/19 04:38:15;;;;;;;6.43;2.37;;;;;;;;;;4956494;28;20302;-79
2021/01/19 04:40:41;;;;;;;4.90;2.47;;;;;;;;;;4974357;28;20267;-79
2021/01/19 04:43:07;;;;;;;5.73;2.53;;;;;;;;;;4954747;28;20281;-79
2021/01/19 04:45:34;;;;;;;11.37;2.73;;;;;;;;;;4947696;28;20282;-79
2021/01/19 04:48:01;;;;;;;8.33;2.50;;;;;;;;;;4956303;28;20341;-78
2021/01/19 04:50:29;;;;;;;9.67;3.50;;;;;;;;;;4969278;28;20505;-78
2021/01/19 04:52:58;;;;;;;6.90;3.10;;;;;;;;;;4956775;28;20318;-77
2021/01/19 04:55:24;;;;;;;3.97;1.77;;;;;;;;;;4953121;29;20501;-78
2021/01/19 04:57:54;;;;;;;6.93;2.37;;;;;;;;;;4970324;28;20293;-78
2021/01/19 05:00:27;;;;;;;4.57;2.00;;;;;;;;;;4973553;28;20282;-79
2021/01/19 05:03:00;;;;;;;6.57;1.55;;;;;;;;;;4956678;28;20270;-77
2021/01/19 05:05:38;;;;;;;5.30;2.22;;;;;;;;;;4955744;28;20050;-76
2021/01/19 05:08:19;;;;;;;3.93;2.13;;;;;;;;;;4937993;29;20059;-79
2021/01/19 05:10:56;;;;;;;5.70;2.30;;;;;;;;;;4940012;29;20291;-78
2021/01/19 05:13:41;;;;;;;6.70;2.27;;;;;;;;;;4942641;28;20344;-78
2021/01/19 05:16:11;;;;;;;8.20;3.17;;;;;;;;;;4972659;28;20352;-77
2021/01/19 05:18:38;;;;;;;5.73;2.67;;;;;;;;;;4956022;28;20262;-79
2021/01/19 05:21:06;;;;;;;11.03;2.80;;;;;;;;;;4956560;28;20270;-79
2021/01/19 05:23:32;;;;;;;7.97;2.30;;;;;;;;;;4973341;28;20278;-77
2021/01/19 05:26:01;;;;;;;4.07;1.67;;;;;;;;;;4972637;28;20274;-76
2021/01/19 05:28:35;;;;;;;8.67;2.70;;;;;;;;;;4952212;29;20791;-77
2021/01/19 05:31:06;;;;;;;5.07;2.50;;;;;;;;;;4958745;28;20270;-78
2021/01/19 05:33:34;;;;;;;5.23;2.13;;;;;;;;;;4973364;28;20317;-79
2021/01/19 05:36:10;;;;;;;6.07;2.53;;;;;;;;;;4970698;28;20742;-79
2021/01/19 05:38:49;;;;;;;3.83;2.20;;;;;;;;;;4971841;28;20818;-78
2021/01/19 05:41:25;;;;;;;5.60;2.57;;;;;;;;;;4967621;28;20294;-78
2021/01/19 05:43:53;;;;;;;8.70;2.87;;;;;;;;;;4953409;28;20809;-79
2021/01/19 05:46:29;;;;;;;8.10;2.10;;;;;;;;;;4973113;28;20266;-78
2021/01/19 05:49:02;;;;;;;6.90;2.07;;;;;;;;;;4972235;28;20301;-79
2021/01/19 05:51:29;;;;;;;4.38;1.75;;;;;;;;;;4972842;28;20791;-77
2021/01/19 05:53:56;;;;;;;6.20;1.97;;;;;;;;;;4973875;28;20066;-79
2021/01/19 05:56:22;;;;;;;5.93;2.50;;;;;;;;;;4971418;28;20270;-76
2021/01/19 05:58:49;;;;;;;7.17;1.80;;;;;;;;;;4961997;28;20878;-78
2021/01/19 06:01:34;;;;;;;8.87;3.43;;;;;;;;;;4954735;28;20281;-79
2021/01/19 06:04:01;;;;;;;10.37;4.43;;;;;;;;;;4953088;29;20402;-78
2021/01/19 06:06:28;;;;;;;8.33;3.80;;;;;;;;;;4951662;29;20772;-79
2021/01/19 06:09:14;;;;;;;3.70;2.43;;;;;;;;;;4955742;28;20266;-79
2021/01/19 06:11:49;;;;;;;7.33;2.40;;;;;;;;;;4954827;28;20611;-78
2021/01/19 06:14:20;;;;;;;6.07;1.80;;;;;;;;;;4972300;28;20321;-79
2021/01/19 06:16:46;;;;;;;4.43;1.47;;;;;;;;;;4963498;28;21155;-79
2021/01/19 06:19:25;;;;;;;4.90;1.97;;;;;;;;;;4955204;28;20971;-79
2021/01/19 06:21:51;;;;;;;3.23;1.53;;;;;;;;;;4973302;28;20760;-79
2021/01/19 06:24:17;;;;;;;2.83;1.53;;;;;;;;;;4955580;28;20262;-79
2021/01/19 06:26:43;;;;;;;7.67;1.80;;;;;;;;;;4954698;28;20277;-78
2021/01/19 06:29:09;;;;;;;7.33;2.47;;;;;;;;;;4956618;28;20270;-79
2021/01/19 06:31:38;;;;;;;5.30;2.03;;;;;;;;;;4946506;28;20337;-76
2021/01/19 06:34:04;;;;;;;4.93;1.40;;;;;;;;;;4949744;28;20322;-78
2021/01/19 06:36:37;;;;;;;7.53;2.07;;;;;;;;;;4967699;28;20309;-79
2021/01/19 06:39:03;;;;;;;6.53;1.73;;;;;;;;;;4962955;28;20291;-79
2021/01/19 06:41:31;;;;;;;4.60;1.70;;;;;;;;;;4956581;28;20299;-79
2021/01/19 06:44:00;;;;;;;5.47;1.97;;;;;;;;;;4952429;29;20267;-79
2021/01/19 06:46:28;;;;;;;4.43;2.00;;;;;;;;;;4957706;28;20361;-78
2021/01/19 06:48:56;;;;;;;4.77;1.90;;;;;;;;;;4954266;28;20270;-78
2021/01/19 06:51:23;;;;;;;5.77;1.83;;;;;;;;;;4972575;28;20301;-79
2021/01/19 06:54:05;;;;;;;4.20;1.90;;;;;;;;;;4968604;28;20775;-79
2021/01/19 06:56:37;;;;;;;6.87;2.40;;;;;;;;;;4955251;28;20301;-80
2021/01/19 06:59:08;;;;;;;6.60;2.60;;;;;;;;;;4971963;28;21159;-79
2021/01/19 07:01:39;;;;;;;6.20;2.20;;;;;;;;;;4956091;28;20266;-80
2021/01/19 07:04:25;;;;;;;6.53;2.23;;;;;;;;;;4954321;28;20940;-79
2021/01/19 07:07:22;;;;;;;10.23;3.47;;;;;;;;;;4964956;28;20676;-80
2021/01/19 07:10:14;;;;;;;5.80;3.07;;;;;;;;;;4944053;28;20309;-79
2021/01/19 07:13:00;;;;;;;3.63;2.00;;;;;;;;;;4946528;28;20287;-76
2021/01/19 07:15:46;;;;;;;6.77;2.40;;;;;;;;;;4964326;28;20283;-79
2021/01/19 07:18:31;;;;;;;7.70;2.37;;;;;;;;;;4939222;28;20285;-80
2021/01/19 07:21:04;;;;;;;6.50;2.40;;;;;;;;;;4975859;28;20584;-80
2021/01/19 07:23:30;;;;;;;;;;;;;;;;;;4949903;28;20285;-79
2021/01/19 07:25:56;;;;;;;4.60;2.23;;;;;;;;;;4952933;28;19997;-80
2021/01/19 07:28:22;;;;;;;5.17;2.60;;;;;;;;;;4973198;28;20046;-80
2021/01/19 07:30:48;;;;;;;6.13;2.23;;;;;;;;;;4954676;28;20337;-78
2021/01/19 07:33:21;;;;;;;4.20;1.97;;;;;;;;;;4971825;28;20322;-80
2021/01/19 07:35:47;;;;;;;6.17;1.80;;;;;;;;;;4966891;28;20310;-80
2021/01/19 07:38:21;;;;;;;5.67;2.30;;;;;;;;;;4963305;28;20278;-80
2021/01/19 07:40:47;;;;;;;6.07;2.00;;;;;;;;;;4970904;28;20293;-80
2021/01/19 07:43:17;;;;;;;6.30;2.17;;;;;;;;;;4967381;28;20301;-80
2021/01/19 07:45:52;;;;;;;4.97;2.20;;;;;;;;;;4972331;28;20306;-80
2021/01/19 07:48:29;;;;;;;4.40;2.10;;;;;;;;;;4953215;28;20354;-79
2021/01/19 07:50:55;;;;;;;6.70;2.27;;;;;;;;;;4977400;28;20274;-80
2021/01/19 07:53:21;;;;;;;8.30;2.37;;;;;;;;;;4976535;28;20296;-79
2021/01/19 07:55:48;;;;;;;8.10;2.57;;;;;;;;;;4974629;28;20676;-81
2021/01/19 07:58:15;;;;;;;7.87;2.17;;;;;;;;;;4974724;28;20266;-81
2021/01/19 08:00:45;;;;;;;7.13;2.60;;;;;;;;;;4972673;28;20958;-81
2021/01/19 08:03:11;;;;;;;5.53;2.60;;;;;;;;;;4974637;28;20341;-79
2021/01/19 08:05:38;;;;;;;9.20;4.13;;;;;;;;;;4974097;28;20627;-81
2021/01/19 08:08:14;;;;;;;7.43;3.37;;;;;;;;;;4939515;29;20285;-81
2021/01/19 08:10:40;;;;;;;7.53;2.83;;;;;;;;;;4954996;29;20330;-81
2021/01/19 08:13:16;;;;;;;8.00;4.00;;;;;;;;;;4956372;29;20291;-80
2021/01/19 08:15:42;;;;;;;6.90;3.10;;;;;;;;;;4958352;29;20267;-81
2021/01/19 08:18:15;;;;;;;11.63;5.77;;;;;;;;;;4965938;28;20274;-81
2021/01/19 08:20:41;;;;;;;10.05;4.57;;;;;;;;;;4975898;28;20266;-80
2021/01/19 08:23:20;;;;;;;9.80;4.10;;;;;;;;;;4958972;28;20113;-81
2021/01/19 08:25:47;;;;;;;8.47;4.10;;;;;;;;;;4960401;28;20266;-81
2021/01/19 08:28:17;;;;;;;11.03;4.57;;;;;;;;;;4955938;29;20278;-79
2021/01/19 08:30:45;;;;;;;10.43;3.67;;;;;;;;;;4958699;29;20290;-81
2021/01/19 08:33:12;;;;;;;8.90;3.77;;;;;;;;;;4976137;28;20294;-81
2021/01/19 08:35:39;;;;;;;7.93;3.50;;;;;;;;;;4962467;28;20262;-80
2021/01/19 08:38:05;;;;;;;8.53;2.70;;;;;;;;;;4975384;28;20274;-79
2021/01/19 08:40:32;;;;;;;5.80;3.60;;;;;;;;;;4976851;28;21081;-79
2021/01/19 08:42:58;;;;;;;8.10;3.47;;;;;;;;;;4961567;28;20345;-80
2021/01/19 08:45:26;;;;;;;8.60;3.40;;;;;;;;;;4960461;28;20270;-82
2021/01/19 08:47:57;;;;;;;6.17;3.23;;;;;;;;;;4959539;28;20270;-82
2021/01/19 08:50:25;;;;;;;10.63;4.63;;;;;;;;;;4959949;28;20274;-81
2021/01/19 08:52:52;;;;;;;9.77;4.07;;;;;;;;;;4959878;28;20723;-81
2021/01/19 08:55:22;;;;;;;10.10;5.70;;;;;;;;;;4975623;28;20266;-79
2021/01/19 08:57:53;;;;;;;16.37;9.53;;;;;;;;;;4976697;28;20316;-81
2021/01/19 09:00:24;;;;;;;26.73;14.07;;;;;;;;;;4961516;28;20325;-80
2021/01/19 09:02:50;;;;;;;26.83;13.33;;;;;;;;;;4968535;28;20278;-81
2021/01/19 09:05:31;;;;;;;87.27;40.97;;;;;;;;;;4977282;28;20258;-77
2021/01/19 09:07:58;;;;;;;16.13;6.33;;;;;;;;;;4960120;28;20578;-80
2021/01/19 09:10:25;;;;;;;11.27;4.63;;;;;;;;;;4958883;28;20273;-79
2021/01/19 09:12:52;;;;;;;7.90;3.97;;;;;;;;;;4958767;28;20321;-80
2021/01/19 09:15:18;;;;;;;7.27;3.40;;;;;;;;;;4974798;28;20274;-80
2021/01/19 09:17:55;;;;;;;8.17;4.00;;;;;;;;;;4957502;28;20297;-80
2021/01/19 09:20:23;;;;;;;8.53;4.00;;;;;;;;;;4958140;28;20023;-81
2021/01/19 09:22:51;;;;;;;6.63;3.40;;;;;;;;;;4939242;29;20128;-81
2021/01/19 09:25:19;;;;;;;8.17;4.10;;;;;;;;;;4939216;29;20090;-82
2021/01/19 09:27:46;;;;;;;9.07;3.60;;;;;;;;;;4954573;28;20038;-81
2021/01/19 09:30:13;;;;;;;8.10;4.10;;;;;;;;;;4955775;28;20289;-82
2021/01/19 09:32:40;;;;;;;8.67;4.20;;;;;;;;;;4958387;28;20297;-81
2021/01/19 09:35:08;;;;;;;8.93;4.47;;;;;;;;;;4959804;28;20316;-82
2021/01/19 09:37:34;;;;;;;9.80;4.80;;;;;;;;;;4948168;28;20281;-78
2021/01/19 09:40:02;;;;;;;10.90;5.07;;;;;;;;;;4965110;28;20278;-80
2021/01/19 09:42:28;;;;;;;8.20;4.40;;;;;;;;;;4969615;28;20278;-81
2021/01/19 09:44:54;;;;;;;8.93;4.57;;;;;;;;;;4964330;28;20317;-82
2021/01/19 09:47:25;;;;;;;10.50;4.73;;;;;;;;;;4959071;28;20333;-83
2021/01/19 09:49:53;;;;;;;12.20;6.60;;;;;;;;;;4956459;28;20301;-82
2021/01/19 09:52:20;;;;;;;10.87;5.70;;;;;;;;;;4959587;28;20276;-79
2021/01/19 09:54:46;;;;;;;11.57;5.70;;;;;;;;;;4969938;28;20297;-80
2021/01/19 09:57:12;;;;;;;9.67;5.10;;;;;;;;;;4973327;28;20363;-82
2021/01/19 09:59:41;;;;;;;11.13;6.03;;;;;;;;;;4955832;28;20284;-83
2021/01/19 10:02:08;;;;;;;9.80;5.33;;;;;;;;;;4942606;29;20765;-81
2021/01/19 10:04:34;;;;;;;12.67;8.00;;;;;;;;;;4954867;29;20307;-82
2021/01/19 10:07:10;;;;;;;19.37;9.30;;;;;;;;;;4959005;28;20262;-82
2021/01/19 10:09:37;;;;;;;20.10;10.30;;;;;;;;;;4975723;28;20297;-82
2021/01/19 10:12:08;;;;;;;41.47;20.07;;;;;;;;;;4964393;28;20306;-82
2021/01/19 10:14:36;;;;;;;130.60;57.07;;;;;;;;;;4951873;28;20313;-83
2021/01/19 10:17:02;;;;;;;23.63;14.53;;;;;;;;;;4973871;28;20277;-81
2021/01/19 10:19:32;;;;;;;28.20;15.40;;;;;;;;;;4968677;28;20278;-81
2021/01/19 10:21:59;;;;;;;12.33;7.47;;;;;;;;;;4964493;28;20281;-81
2021/01/19 10:24:25;;;;;;;10.10;6.53;;;;;;;;;;4974649;28;20293;-82
2021/01/19 10:27:08;;;;;;;12.93;7.30;;;;;;;;;;4973559;28;20278;-77
2021/01/19 10:29:38;;;;;;;11.77;5.93;;;;;;;;;;4956340;28;20850;-83
2021/01/19 10:32:08;;;;;;;8.30;5.00;;;;;;;;;;4957442;28;20266;-82
2021/01/19 10:34:34;;;;;;;9.77;5.57;;;;;;;;;;4953778;28;20290;-80
2021/01/19 10:37:01;;;;;;;10.87;5.60;;;;;;;;;;4946852;28;20259;-80
2021/01/19 10:39:29;;;;;;;13.97;6.90;;;;;;;;;;4956030;28;20452;-82
2021/01/19 10:41:58;;;;;;;10.23;5.90;;;;;;;;;;4971070;28;20338;-81
2021/01/19 10:44:25;;;;;;;19.70;10.23;;;;;;;;;;4964738;28;20348;-80
2021/01/19 10:46:58;;;;;;;13.20;6.17;;;;;;;;;;4972111;28;20297;-81
2021/01/19 10:49:31;;;;;;;9.63;3.53;;;;;;;;;;4976206;28;20381;-82
2021/01/19 10:51:57;;;;;;;6.63;2.85;;;;;;;;;;4971330;28;20111;-81
2021/01/19 10:54:24;;;;;;;8.17;4.07;;;;;;;;;;4959193;28;20034;-80
2021/01/19 10:57:02;;;;;;;7.83;3.37;;;;;;;;;;4957541;28;20266;-82
2021/01/19 10:59:28;;;;;;;6.57;3.43;;;;;;;;;;4951190;29;20038;-83
2021/01/19 11:01:55;;;;;;;9.13;3.67;;;;;;;;;;4957421;28;20342;-78
2021/01/19 11:04:22;;;;;;;7.67;3.97;;;;;;;;;;4974676;28;20803;-83
2021/01/19 11:06:48;;;;;;;8.97;3.63;;;;;;;;;;4952235;28;20451;-82
2021/01/19 11:09:17;;;;;;;9.00;3.93;;;;;;;;;;4966859;28;20452;-81
2021/01/19 11:11:43;;;;;;;7.17;3.47;;;;;;;;;;4971840;28;20035;-82
2021/01/19 11:14:10;;;;;;;7.40;4.33;;;;;;;;;;4974168;28;20074;-82
2021/01/19 11:16:37;;;;;;;10.00;5.20;;;;;;;;;;4973140;28;20070;-83
2021/01/19 11:19:05;;;;;;;8.53;5.33;;;;;;;;;;4974455;28;20027;-82
2021/01/19 11:21:32;;;;;;;8.00;4.30;;;;;;;;;;4968721;28;20038;-83
2021/01/19 11:24:00;;;;;;;7.60;4.03;;;;;;;;;;4944235;28;20039;-82
2021/01/19 11:26:27;;;;;;;9.40;3.80;;;;;;;;;;4973850;28;20476;-84
2021/01/19 11:28:53;;;;;;;10.30;4.33;;;;;;;;;;4955336;28;20089;-82
2021/01/19 11:31:29;;;;;;;8.83;4.33;;;;;;;;;;4955884;28;20047;-83
2021/01/19 11:33:56;;;;;;;7.57;4.13;;;;;;;;;;4956884;28;20027;-82
2021/01/19 11:36:29;;;;;;;8.33;3.77;;;;;;;;;;4957545;28;20027;-84
2021/01/19 11:38:56;;;;;;;8.00;3.95;;;;;;;;;;4957782;28;20049;-83
2021/01/19 11:41:24;;;;;;;7.17;3.43;;;;;;;;;;4976568;28;20030;-83
2021/01/19 11:43:50;;;;;;;10.37;4.00;;;;;;;;;;4964560;28;20271;-83
2021/01/19 11:46:26;;;;;;;8.97;4.63;;;;;;;;;;4965015;28;21152;-83
2021/01/19 11:48:53;;;;;;;8.70;3.63;;;;;;;;;;4959736;28;20282;-83
2021/01/19 11:51:29;;;;;;;8.33;4.50;;;;;;;;;;4955793;28;20278;-81
2021/01/19 11:53:59;;;;;;;9.10;4.70;;;;;;;;;;4973597;28;20385;-83
2021/01/19 11:56:41;;;;;;;13.23;5.73;;;;;;;;;;4951555;28;20023;-82
2021/01/19 11:59:08;;;;;;;32.97;15.73;;;;;;;;;;4951100;29;20437;-80
2021/01/19 12:01:36;;;;;;;9.87;5.40;;;;;;;;;;4953825;28;20278;-81
2021/01/19 12:04:02;;;;;;;11.03;4.93;;;;;;;;;;4972623;28;20520;-82
2021/01/19 12:06:38;;;;;;;9.20;5.00;;;;;;;;;;4947983;29;20039;-82
2021/01/19 12:09:05;;;;;;;9.37;5.07;;;;;;;;;;4959284;28;20285;-80
2021/01/19 12:11:31;;;;;;;11.97;4.63;;;;;;;;;;4978431;28;20058;-81
2021/01/19 12:13:57;;;;;;;7.93;4.37;;;;;;;;;;4953736;28;20046;-81
2021/01/19 12:16:24;;;;;;;10.73;5.13;;;;;;;;;;4961234;28;20448;-80
2021/01/19 12:18:53;;;;;;;13.20;5.00;;;;;;;;;;4963144;28;20065;-81
2021/01/19 12:21:19;;;;;;;9.37;4.53;;;;;;;;;;4964462;28;20157;-81
2021/01/19 12:23:49;;;;;;;9.57;4.83;;;;;;;;;;4963156;28;20031;-80
2021/01/19 12:26:15;;;;;;;9.23;5.03;;;;;;;;;;4968416;28;20456;-81
2021/01/19 12:28:44;;;;;;;10.43;5.10;;;;;;;;;;4964768;28;20023;-82
2021/01/19 12:31:12;;;;;;;13.30;5.60;;;;;;;;;;4971055;28;20278;-79
2021/01/19 12:33:41;;;;;;;9.83;5.50;;;;;;;;;;4962049;28;20031;-80
2021/01/19 12:36:07;;;;;;;10.60;5.53;;;;;;;;;;4968139;28;20271;-81
2021/01/19 12:38:34;;;;;;;12.23;6.13;;;;;;;;;;4974011;28;20278;-82
2021/01/19 12:41:00;;;;;;;11.10;4.87;;;;;;;;;;4974431;28;20274;-80
2021/01/19 12:43:26;;;;;;;9.93;5.30;;;;;;;;;;4957374;28;20039;-81
2021/01/19 12:45:56;;;;;;;8.40;4.80;;;;;;;;;;4961308;28;20035;-80
2021/01/19 12:48:25;;;;;;;9.87;4.77;;;;;;;;;;4960194;28;20334;-81
2021/01/19 12:50:54;;;;;;;8.70;4.50;;;;;;;;;;4952595;28;20398;-79
2021/01/19 12:53:20;;;;;;;9.37;4.90;;;;;;;;;;4952633;28;20318;-81
2021/01/19 12:55:46;;;;;;;9.60;4.70;;;;;;;;;;4960094;28;20274;-81
2021/01/19 12:58:18;;;;;;;10.63;6.17;;;;;;;;;;4950107;28;20853;-80
2021/01/19 13:00:45;;;;;;;8.97;5.30;;;;;;;;;;4979666;28;20771;-78
2021/01/19 13:03:11;;;;;;;13.70;5.70;;;;;;;;;;4956126;28;20322;-79
2021/01/19 13:05:38;;;;;;;9.93;4.93;;;;;;;;;;4959909;28;20294;-83
2021/01/19 13:08:04;;;;;;;14.03;5.67;;;;;;;;;;4976880;28;20270;-81
2021/01/19 13:10:34;;;;;;;14.20;6.60;;;;;;;;;;4968916;28;20325;-82
2021/01/19 13:13:00;;;;;;;10.53;5.13;;;;;;;;;;4974941;28;20381;-81
2021/01/19 13:15:26;;;;;;;9.90;4.87;;;;;;;;;;4959646;28;20296;-81
2021/01/19 13:17:53;;;;;;;10.93;4.80;;;;;;;;;;4961414;28;20723;-82
2021/01/19 13:20:22;;;;;;;11.93;5.17;;;;;;;;;;4963391;28;20286;-80
2021/01/19 13:22:48;;;;;;;33.37;18.20;;;;;;;;;;4962576;28;20282;-82
2021/01/19 13:25:15;;;;;;;8.37;4.67;;;;;;;;;;4977577;28;20353;-82
2021/01/19 13:27:43;;;;;;;11.90;5.87;;;;;;;;;;4976715;28;20593;-78
2021/01/19 13:30:11;;;;;;;15.10;6.60;;;;;;;;;;4956825;28;20293;-82
2021/01/19 13:32:38;;;;;;;14.73;6.43;;;;;;;;;;4960214;28;20775;-81
2021/01/19 13:35:05;;;;;;;11.63;5.20;;;;;;;;;;4953611;28;20301;-81
2021/01/19 13:37:33;;;;;;;10.90;4.80;;;;;;;;;;4967814;28;20289;-82
2021/01/19 13:40:00;;;;;;;10.33;5.17;;;;;;;;;;4974901;28;20600;-80
2021/01/19 13:42:26;;;;;;;9.63;4.97;;;;;;;;;;4954792;28;20814;-79
2021/01/19 13:44:53;;;;;;;13.53;7.13;;;;;;;;;;4943810;28;20266;-82
2021/01/19 13:47:19;;;;;;;11.60;6.13;;;;;;;;;;4957414;28;20361;-80
2021/01/19 13:49:45;;;;;;;15.00;8.37;;;;;;;;;;4971792;28;20281;-80
2021/01/19 13:52:11;;;;;;;10.83;5.47;;;;;;;;;;4963440;28;20338;-80
2021/01/19 13:54:38;;;;;;;10.27;4.77;;;;;;;;;;4956111;28;20286;-81
2021/01/19 13:57:04;;;;;;;11.07;5.33;;;;;;;;;;4972887;28;20307;-79
2021/01/19 13:59:30;;;;;;;9.20;4.27;;;;;;;;;;4950560;28;20271;-82
2021/01/19 14:01:56;;;;;;;11.30;4.63;;;;;;;;;;4964458;28;21141;-79
2021/01/19 14:04:23;;;;;;;8.63;3.63;;;;;;;;;;4964096;28;20349;-80
2021/01/19 14:06:50;;;;;;;7.30;3.53;;;;;;;;;;4971328;28;20310;-81
2021/01/19 14:09:16;;;;;;;9.87;3.20;;;;;;;;;;4944508;28;20286;-81
2021/01/19 14:11:45;;;;;;;8.27;4.43;;;;;;;;;;4954456;28;20282;-81
2021/01/19 14:14:23;;;;;;;8.97;3.30;;;;;;;;;;4954237;28;20377;-81
2021/01/19 14:17:00;;;;;;;9.03;3.40;;;;;;;;;;4940192;29;20277;-82
2021/01/19 14:19:27;;;;;;;8.37;4.20;;;;;;;;;;4956088;28;20282;-81
2021/01/19 14:21:56;;;;;;;7.30;3.60;;;;;;;;;;4949743;28;20277;-82
2021/01/19 14:24:23;;;;;;;7.57;3.87;;;;;;;;;;4974598;28;20676;-82
2021/01/19 14:26:49;;;;;;;12.20;3.67;;;;;;;;;;4949505;29;20282;-82
2021/01/19 14:29:15;;;;;;;9.37;3.80;;;;;;;;;;4965368;28;20786;-82
2021/01/19 14:31:49;;;;;;;11.67;4.13;;;;;;;;;;4963614;28;20282;-81
2021/01/19 14:34:17;;;;;;;;;;;;;;;;;;4952143;28;20294;-81
2021/01/19 14:36:43;;;;;;;10.70;3.50;;;;;;;;;;4973720;28;19909;-82
2021/01/19 14:39:10;;;;;;;7.37;3.23;;;;;;;;;;4974321;28;20296;-82
2021/01/19 14:41:43;;;;;;;9.33;3.20;;;;;;;;;;4959376;28;20272;-80
2021/01/19 14:44:10;;;;;;;7.22;2.90;;;;;;;;;;4974118;28;20324;-81
2021/01/19 14:46:37;;;;;;;8.63;3.10;;;;;;;;;;4957520;28;20067;-83
2021/01/19 14:49:07;;;;;;;6.87;3.30;;;;;;;;;;4959276;28;20289;-83